Time;durP1;ratioP1;P1;durP2;ratioP2;P2;SDS_P1;SDS_P2;PMS_P1;PMS_P2;Temp;Humidity;BMP_temperature;BMP_pressure;BME280_temperature;BME280_humidity;BME280_pressure;Samples;Min_cycle;Max_cycle;Signal;HPM_P1;HPM_P2
2023/07/14 00:01:20;;;;;;;1.45;1.20;;;;;;;;;;5051699;28;20430;-86
2023/07/14 00:03:47;;;;;;;3.13;1.30;;;;;;;;;;5052561;28;20882;-86
2023/07/14 00:06:13;;;;;;;1.90;1.30;;;;;;;;;;5052338;28;20421;-86
2023/07/14 00:08:40;;;;;;;2.42;1.35;;;;;;;;;;5052228;28;20409;-85
2023/07/14 00:11:16;;;;;;;2.30;1.38;;;;;;;;;;5052893;28;20381;-87
2023/07/14 00:13:42;;;;;;;1.52;1.27;;;;;;;;;;5044772;28;20495;-86
2023/07/14 00:16:16;;;;;;;1.73;1.30;;;;;;;;;;5063129;28;20845;-86
2023/07/14 00:18:42;;;;;;;1.98;1.40;;;;;;;;;;5043796;28;20377;-86
2023/07/14 00:21:17;;;;;;;3.05;1.30;;;;;;;;;;5046164;28;20392;-85
2023/07/14 00:23:43;;;;;;;3.15;1.42;;;;;;;;;;5039365;28;20373;-86
2023/07/14 00:26:19;;;;;;;2.35;1.30;;;;;;;;;;5052183;28;20457;-86
2023/07/14 00:28:48;;;;;;;3.42;1.52;;;;;;;;;;5052116;28;20472;-85
2023/07/14 00:31:14;;;;;;;1.98;1.60;;;;;;;;;;5047259;28;20812;-86
2023/07/14 00:33:41;;;;;;;1.98;1.40;;;;;;;;;;5051179;28;20508;-86
2023/07/14 00:36:07;;;;;;;2.05;1.55;;;;;;;;;;5053192;28;20413;-86
2023/07/14 00:38:36;;;;;;;2.17;1.50;;;;;;;;;;5051379;28;20377;-85
2023/07/14 00:41:03;;;;;;;2.38;1.60;;;;;;;;;;5044186;28;20436;-85
2023/07/14 00:43:30;;;;;;;2.43;1.57;;;;;;;;;;5051957;28;20461;-85
2023/07/14 00:45:56;;;;;;;2.50;1.60;;;;;;;;;;5051751;28;20419;-85
2023/07/14 00:48:23;;;;;;;1.95;1.52;;;;;;;;;;5052126;28;20389;-86
2023/07/14 00:50:57;;;;;;;2.63;1.50;;;;;;;;;;5038277;28;20853;-86
2023/07/14 00:53:28;;;;;;;2.35;1.42;;;;;;;;;;5052060;28;20428;-85
2023/07/14 00:56:23;;;;;;;2.55;1.50;;;;;;;;;;5051833;28;20382;-85
2023/07/14 00:58:49;;;;;;;3.28;1.60;;;;;;;;;;5051674;28;20470;-85
2023/07/14 01:01:22;;;;;;;2.35;1.58;;;;;;;;;;5046854;28;20878;-85
2023/07/14 01:03:50;;;;;;;1.98;1.50;;;;;;;;;;5051757;28;20385;-86
2023/07/14 01:06:23;;;;;;;1.92;1.60;;;;;;;;;;5059703;28;20396;-86
2023/07/14 01:08:53;;;;;;;1.77;1.50;;;;;;;;;;5055028;28;20457;-85
2023/07/14 01:11:22;;;;;;;1.70;1.60;;;;;;;;;;5038684;28;20381;-85
2023/07/14 01:13:48;;;;;;;2.17;1.40;;;;;;;;;;5055035;28;20493;-86
2023/07/14 01:16:15;;;;;;;1.85;1.50;;;;;;;;;;5055285;28;20795;-85
2023/07/14 01:18:42;;;;;;;2.33;1.50;;;;;;;;;;5060124;28;20387;-85
2023/07/14 01:21:08;;;;;;;2.10;1.33;;;;;;;;;;5061910;28;20809;-85
2023/07/14 01:23:43;;;;;;;2.88;1.40;;;;;;;;;;5055832;28;20735;-86
2023/07/14 01:26:19;;;;;;;1.90;1.33;;;;;;;;;;5055723;28;20413;-85
2023/07/14 01:28:46;;;;;;;2.40;1.40;;;;;;;;;;5042157;28;20929;-85
2023/07/14 01:31:13;;;;;;;2.80;1.43;;;;;;;;;;5052135;28;20463;-86
2023/07/14 01:33:40;;;;;;;1.50;1.30;;;;;;;;;;5050348;28;20500;-86
2023/07/14 01:36:06;;;;;;;2.90;1.40;;;;;;;;;;5038851;28;20458;-85
2023/07/14 01:38:32;;;;;;;2.47;1.38;;;;;;;;;;5050810;28;20381;-86
2023/07/14 01:40:58;;;;;;;2.40;1.40;;;;;;;;;;5053185;28;20438;-86
2023/07/14 01:43:24;;;;;;;2.45;1.27;;;;;;;;;;5023682;28;20394;-87
2023/07/14 01:45:53;;;;;;;1.73;1.20;;;;;;;;;;5055248;28;20393;-86
2023/07/14 01:48:21;;;;;;;2.28;1.30;;;;;;;;;;5053592;28;20376;-86
2023/07/14 01:50:53;;;;;;;4.25;1.55;;;;;;;;;;5054954;28;20409;-86
2023/07/14 01:53:42;;;;;;;2.15;1.48;;;;;;;;;;5054952;28;20475;-86
2023/07/14 01:56:11;;;;;;;2.35;1.27;;;;;;;;;;5049624;28;20392;-86
2023/07/14 01:58:40;;;;;;;3.38;1.30;;;;;;;;;;5037274;28;20870;-87
2023/07/14 02:01:06;;;;;;;2.10;1.57;;;;;;;;;;5054825;28;20466;-86
2023/07/14 02:03:32;;;;;;;1.98;1.40;;;;;;;;;;5055067;28;20381;-86
2023/07/14 02:05:58;;;;;;;1.70;1.40;;;;;;;;;;5055057;28;20929;-86
2023/07/14 02:08:25;;;;;;;2.05;1.40;;;;;;;;;;5051875;28;20417;-86
2023/07/14 02:10:51;;;;;;;1.70;1.15;;;;;;;;;;5053513;28;20425;-87
2023/07/14 02:13:17;;;;;;;2.00;1.30;;;;;;;;;;5052853;28;20417;-86
2023/07/14 02:15:44;;;;;;;2.40;1.33;;;;;;;;;;5052616;28;20468;-86
2023/07/14 02:18:13;;;;;;;2.10;1.50;;;;;;;;;;5055834;28;20875;-86
2023/07/14 02:20:40;;;;;;;2.60;1.52;;;;;;;;;;5054659;28;20738;-85
2023/07/14 02:23:07;;;;;;;2.35;1.55;;;;;;;;;;5053599;28;20421;-86
2023/07/14 02:25:36;;;;;;;2.10;1.50;;;;;;;;;;5053923;28;20456;-86
2023/07/14 02:28:02;;;;;;;2.28;1.25;;;;;;;;;;5054226;28;20389;-86
2023/07/14 02:30:29;;;;;;;2.92;1.33;;;;;;;;;;5054352;28;20898;-86
2023/07/14 02:33:14;;;;;;;1.57;1.47;;;;;;;;;;5040503;28;20448;-86
2023/07/14 02:35:53;;;;;;;3.67;1.70;;;;;;;;;;5051137;28;20381;-86
2023/07/14 02:38:19;;;;;;;1.80;1.30;;;;;;;;;;5052946;28;20926;-86
2023/07/14 02:40:49;;;;;;;1.90;1.20;;;;;;;;;;5046204;28;20463;-87
2023/07/14 02:43:16;;;;;;;3.25;1.67;;;;;;;;;;5034924;28;20394;-86
2023/07/14 02:45:50;;;;;;;2.77;1.87;;;;;;;;;;5033556;28;20466;-85
2023/07/14 02:48:18;;;;;;;2.92;1.65;;;;;;;;;;5049436;28;20485;-85
2023/07/14 02:50:44;;;;;;;2.63;1.65;;;;;;;;;;5052893;28;20858;-86
2023/07/14 02:53:10;;;;;;;2.22;1.45;;;;;;;;;;5049561;28;20381;-85
2023/07/14 02:55:37;;;;;;;2.67;1.60;;;;;;;;;;5053898;28;20456;-87
2023/07/14 02:58:04;;;;;;;2.80;1.57;;;;;;;;;;5053920;28;20385;-86
2023/07/14 03:00:30;;;;;;;2.85;1.55;;;;;;;;;;5053627;28;20378;-86
2023/07/14 03:02:56;;;;;;;1.63;1.50;;;;;;;;;;5045020;28;20861;-87
2023/07/14 03:05:23;;;;;;;2.60;1.60;;;;;;;;;;5037796;28;20376;-85
2023/07/14 03:07:49;;;;;;;2.97;1.50;;;;;;;;;;5053927;28;20564;-86
2023/07/14 03:10:18;;;;;;;2.28;1.70;;;;;;;;;;5054069;28;20449;-86
2023/07/14 03:12:43;;;;;;;2.42;1.58;;;;;;;;;;5056060;28;20373;-87
2023/07/14 03:15:10;;;;;;;4.38;1.40;;;;;;;;;;5049421;28;20554;-85
2023/07/14 03:17:36;;;;;;;4.40;1.70;;;;;;;;;;5053821;28;20385;-85
2023/07/14 03:20:02;;;;;;;2.50;1.35;;;;;;;;;;5033789;28;20402;-87
2023/07/14 03:22:30;;;;;;;1.90;1.30;;;;;;;;;;5043909;28;20869;-87
2023/07/14 03:24:58;;;;;;;1.90;1.27;;;;;;;;;;5053358;28;20397;-87
2023/07/14 03:27:24;;;;;;;2.15;1.42;;;;;;;;;;5053421;28;20377;-87
2023/07/14 03:29:50;;;;;;;3.63;1.50;;;;;;;;;;5053628;28;20385;-86
2023/07/14 03:32:16;;;;;;;3.22;1.60;;;;;;;;;;5053504;28;20377;-86
2023/07/14 03:34:42;;;;;;;2.50;1.42;;;;;;;;;;5052971;28;20878;-87
2023/07/14 03:37:08;;;;;;;3.00;1.33;;;;;;;;;;5052457;28;20385;-86
2023/07/14 03:39:34;;;;;;;2.92;1.55;;;;;;;;;;5053649;28;20382;-87
2023/07/14 03:42:00;;;;;;;2.35;1.48;;;;;;;;;;5052479;28;20480;-85
2023/07/14 03:44:27;;;;;;;2.23;1.40;;;;;;;;;;5053898;28;20818;-86
2023/07/14 03:46:53;;;;;;;2.03;1.23;;;;;;;;;;5053673;28;20854;-85
2023/07/14 03:49:19;;;;;;;2.67;1.45;;;;;;;;;;5050771;28;20372;-86
2023/07/14 03:51:45;;;;;;;2.30;1.57;;;;;;;;;;5052365;28;20925;-87
2023/07/14 03:54:11;;;;;;;2.25;1.52;;;;;;;;;;5053747;28;20401;-87
2023/07/14 03:56:38;;;;;;;3.92;1.65;;;;;;;;;;5056470;28;20386;-87
2023/07/14 03:59:04;;;;;;;4.40;1.60;;;;;;;;;;5050868;28;20385;-85
2023/07/14 04:01:30;;;;;;;6.78;2.00;;;;;;;;;;5058959;28;20378;-86
2023/07/14 04:03:56;;;;;;;2.50;1.55;;;;;;;;;;5062234;28;20389;-87
2023/07/14 04:06:22;;;;;;;2.72;1.60;;;;;;;;;;5052767;28;20819;-87
2023/07/14 04:08:50;;;;;;;2.10;1.33;;;;;;;;;;5052977;28;20400;-88
2023/07/14 04:11:16;;;;;;;1.88;1.45;;;;;;;;;;5052635;28;20389;-87
2023/07/14 04:13:42;;;;;;;3.35;1.65;;;;;;;;;;5050337;28;20961;-87
2023/07/14 04:16:08;;;;;;;1.90;1.40;;;;;;;;;;5052390;28;20385;-87
2023/07/14 04:18:35;;;;;;;2.92;1.35;;;;;;;;;;5052522;28;20428;-87
2023/07/14 04:21:11;;;;;;;2.20;1.40;;;;;;;;;;5067286;28;20894;-86
2023/07/14 04:23:39;;;;;;;1.50;1.40;;;;;;;;;;5052133;28;20377;-86
2023/07/14 04:26:07;;;;;;;2.45;1.50;;;;;;;;;;5052049;28;20389;-86
2023/07/14 04:28:33;;;;;;;2.75;1.60;;;;;;;;;;5050032;28;20397;-88
2023/07/14 04:31:02;;;;;;;2.35;1.45;;;;;;;;;;5039063;28;20383;-87
2023/07/14 04:33:29;;;;;;;1.83;1.17;;;;;;;;;;5049029;28;20409;-86
2023/07/14 04:35:55;;;;;;;5.07;3.50;;;;;;;;;;5059527;28;20372;-87
2023/07/14 04:38:22;;;;;;;1.55;1.30;;;;;;;;;;5051030;28;20405;-88
2023/07/14 04:40:48;;;;;;;2.78;1.48;;;;;;;;;;5053963;28;20385;-87
2023/07/14 04:43:14;;;;;;;1.65;1.30;;;;;;;;;;5051421;28;20403;-87
2023/07/14 04:45:41;;;;;;;1.60;1.50;;;;;;;;;;5051559;28;20847;-86
2023/07/14 04:48:08;;;;;;;2.78;1.60;;;;;;;;;;5053211;28;21088;-86
2023/07/14 04:50:35;;;;;;;3.80;1.70;;;;;;;;;;5055614;28;20876;-86
2023/07/14 04:53:05;;;;;;;3.55;1.50;;;;;;;;;;5050642;28;20387;-86
2023/07/14 04:55:31;;;;;;;3.95;1.83;;;;;;;;;;5052178;28;20385;-86
2023/07/14 04:57:57;;;;;;;2.28;1.42;;;;;;;;;;5051856;28;20386;-87
2023/07/14 05:00:23;;;;;;;4.20;1.70;;;;;;;;;;5046198;28;20445;-87
2023/07/14 05:02:49;;;;;;;3.75;1.40;;;;;;;;;;5055095;28;20389;-87
2023/07/14 05:05:20;;;;;;;3.03;1.70;;;;;;;;;;5059975;28;20476;-86
2023/07/14 05:07:49;;;;;;;3.03;1.88;;;;;;;;;;5053829;28;20497;-87
2023/07/14 05:10:19;;;;;;;2.72;1.35;;;;;;;;;;5055372;28;20424;-87
2023/07/14 05:12:45;;;;;;;4.15;1.70;;;;;;;;;;5054874;28;20412;-87
2023/07/14 05:15:11;;;;;;;3.60;1.47;;;;;;;;;;5055177;28;20476;-87
2023/07/14 05:17:37;;;;;;;3.88;1.80;;;;;;;;;;5055092;28;20424;-85
2023/07/14 05:20:06;;;;;;;2.58;1.40;;;;;;;;;;5054668;28;20429;-87
2023/07/14 05:22:35;;;;;;;3.10;1.67;;;;;;;;;;5054758;28;20502;-87
2023/07/14 05:25:01;;;;;;;2.17;1.58;;;;;;;;;;5055135;28;20464;-86
2023/07/14 05:27:27;;;;;;;3.17;1.73;;;;;;;;;;5054663;28;20486;-86
2023/07/14 05:29:53;;;;;;;2.58;1.45;;;;;;;;;;5054652;28;20531;-86
2023/07/14 05:32:21;;;;;;;4.35;1.60;;;;;;;;;;5054572;28;20897;-87
2023/07/14 05:34:47;;;;;;;1.90;1.50;;;;;;;;;;5055773;28;20489;-87
2023/07/14 05:37:13;;;;;;;2.78;1.80;;;;;;;;;;5047184;28;20392;-86
2023/07/14 05:39:39;;;;;;;2.95;1.67;;;;;;;;;;5053586;28;20878;-86
2023/07/14 05:42:05;;;;;;;2.53;1.40;;;;;;;;;;5054574;28;20888;-85
2023/07/14 05:44:31;;;;;;;3.40;1.45;;;;;;;;;;5054468;28;20797;-86
2023/07/14 05:46:57;;;;;;;2.57;1.60;;;;;;;;;;5054690;28;20859;-86
2023/07/14 05:49:23;;;;;;;2.80;1.50;;;;;;;;;;5054474;28;20890;-87
2023/07/14 05:51:51;;;;;;;1.92;1.42;;;;;;;;;;5054563;28;20378;-87
2023/07/14 05:54:17;;;;;;;2.92;1.48;;;;;;;;;;5050018;28;20403;-85
2023/07/14 05:56:43;;;;;;;4.10;1.52;;;;;;;;;;5053251;28;20439;-85
2023/07/14 05:59:10;;;;;;;2.40;1.48;;;;;;;;;;5057365;28;20873;-88
2023/07/14 06:01:36;;;;;;;3.17;1.55;;;;;;;;;;5055458;28;20374;-87
2023/07/14 06:04:02;;;;;;;1.80;1.50;;;;;;;;;;5054114;28;20390;-85
2023/07/14 06:06:28;;;;;;;2.50;1.50;;;;;;;;;;5052352;28;20535;-85
2023/07/14 06:08:55;;;;;;;1.70;1.47;;;;;;;;;;5053965;28;20502;-84
2023/07/14 06:11:21;;;;;;;3.40;1.70;;;;;;;;;;5054262;28;20382;-85
2023/07/14 06:13:47;;;;;;;3.13;1.63;;;;;;;;;;5053701;28;20409;-86
2023/07/14 06:16:13;;;;;;;2.95;1.98;;;;;;;;;;5056604;28;20378;-86
2023/07/14 06:18:39;;;;;;;3.70;1.88;;;;;;;;;;5053794;28;20870;-85
2023/07/14 06:21:05;;;;;;;3.33;1.60;;;;;;;;;;5053743;28;20392;-85
2023/07/14 06:23:31;;;;;;;4.25;2.00;;;;;;;;;;5053309;28;20384;-85
2023/07/14 06:25:57;;;;;;;3.63;1.60;;;;;;;;;;5053687;28;20378;-87
2023/07/14 06:28:24;;;;;;;3.28;1.70;;;;;;;;;;5054117;28;20384;-86
2023/07/14 06:30:56;;;;;;;2.80;1.70;;;;;;;;;;5053445;28;20392;-87
2023/07/14 06:33:22;;;;;;;3.10;1.45;;;;;;;;;;5054080;28;20378;-87
2023/07/14 06:35:48;;;;;;;3.17;1.73;;;;;;;;;;5053961;28;20392;-86
2023/07/14 06:38:14;;;;;;;2.13;1.70;;;;;;;;;;5054370;28;20380;-88
2023/07/14 06:40:41;;;;;;;1.98;1.65;;;;;;;;;;5057173;28;20372;-87
2023/07/14 06:43:09;;;;;;;3.00;1.60;;;;;;;;;;5054117;28;20377;-86
2023/07/14 06:45:35;;;;;;;3.35;2.10;;;;;;;;;;5053633;28;20435;-86
2023/07/14 06:48:01;;;;;;;2.88;1.90;;;;;;;;;;5053566;28;20373;-87
2023/07/14 06:50:27;;;;;;;3.50;2.20;;;;;;;;;;5053908;28;20793;-85
2023/07/14 06:52:53;;;;;;;2.92;2.10;;;;;;;;;;5053888;28;20905;-87
2023/07/14 06:55:19;;;;;;;2.30;1.80;;;;;;;;;;5053534;28;20905;-86
2023/07/14 06:57:45;;;;;;;3.30;1.80;;;;;;;;;;5050760;28;20378;-86
2023/07/14 07:00:12;;;;;;;3.53;2.08;;;;;;;;;;5054983;28;20390;-85
2023/07/14 07:02:39;;;;;;;2.70;2.00;;;;;;;;;;5052835;28;20409;-85
2023/07/14 07:05:06;;;;;;;2.25;1.90;;;;;;;;;;5052264;28;20475;-85
2023/07/14 07:07:32;;;;;;;2.00;1.75;;;;;;;;;;5052909;28;20413;-85
2023/07/14 07:09:58;;;;;;;2.75;1.85;;;;;;;;;;5051557;28;20877;-85
2023/07/14 07:12:24;;;;;;;2.22;1.80;;;;;;;;;;5052662;28;20385;-85
2023/07/14 07:14:50;;;;;;;3.38;2.30;;;;;;;;;;5051622;28;20424;-85
2023/07/14 07:17:16;;;;;;;2.20;1.97;;;;;;;;;;5053355;28;20426;-85
2023/07/14 07:19:43;;;;;;;3.00;2.03;;;;;;;;;;5052881;28;20378;-85
2023/07/14 07:22:09;;;;;;;2.42;1.95;;;;;;;;;;5053061;28;20394;-85
2023/07/14 07:24:36;;;;;;;2.10;1.90;;;;;;;;;;5053026;28;20862;-85
2023/07/14 07:27:02;;;;;;;3.53;2.22;;;;;;;;;;5053374;28;20792;-85
2023/07/14 07:29:30;;;;;;;2.13;1.83;;;;;;;;;;5052858;28;20385;-85
2023/07/14 07:31:56;;;;;;;4.80;2.05;;;;;;;;;;5052599;28;20435;-84
2023/07/14 07:34:22;;;;;;;4.15;2.30;;;;;;;;;;5052641;28;20409;-85
2023/07/14 07:36:48;;;;;;;5.45;2.53;;;;;;;;;;5052434;28;20881;-85
2023/07/14 07:39:14;;;;;;;3.10;2.35;;;;;;;;;;5052674;28;20378;-85
2023/07/14 07:41:40;;;;;;;3.53;2.45;;;;;;;;;;5052694;28;20388;-85
2023/07/14 07:44:08;;;;;;;2.33;2.13;;;;;;;;;;5052481;28;20878;-85
2023/07/14 07:46:35;;;;;;;3.75;2.50;;;;;;;;;;5052378;28;20393;-85
2023/07/14 07:49:01;;;;;;;2.45;2.25;;;;;;;;;;5051390;28;20461;-85
2023/07/14 07:51:27;;;;;;;4.50;2.40;;;;;;;;;;5052534;28;20829;-86
2023/07/14 07:53:53;;;;;;;2.63;1.98;;;;;;;;;;5052211;28;20440;-85
2023/07/14 07:56:19;;;;;;;3.47;2.30;;;;;;;;;;5052323;28;20378;-86
2023/07/14 07:58:45;;;;;;;5.00;3.75;;;;;;;;;;5052172;28;20465;-85
2023/07/14 08:01:17;;;;;;;3.20;2.25;;;;;;;;;;5052210;28;20373;-85
2023/07/14 08:03:43;;;;;;;2.83;2.45;;;;;;;;;;5052280;28;20412;-85
2023/07/14 08:06:09;;;;;;;2.78;2.50;;;;;;;;;;5055780;28;20869;-86
2023/07/14 08:08:35;;;;;;;4.45;2.20;;;;;;;;;;5059935;28;20409;-86
2023/07/14 08:11:02;;;;;;;2.50;2.30;;;;;;;;;;5041399;28;20385;-85
2023/07/14 08:13:28;;;;;;;3.35;2.20;;;;;;;;;;5052317;28;20500;-85
2023/07/14 08:15:55;;;;;;;2.25;2.05;;;;;;;;;;5052022;28;20405;-85
2023/07/14 08:18:22;;;;;;;3.72;2.50;;;;;;;;;;5054490;28;20385;-84
2023/07/14 08:20:49;;;;;;;3.40;2.42;;;;;;;;;;5052058;28;20384;-85
2023/07/14 08:23:16;;;;;;;2.95;2.08;;;;;;;;;;5057298;28;20866;-84
2023/07/14 08:25:42;;;;;;;3.37;2.30;;;;;;;;;;5058750;28;20377;-86
2023/07/14 08:28:10;;;;;;;2.63;2.35;;;;;;;;;;5058457;28;20460;-85
2023/07/14 08:30:36;;;;;;;3.83;2.38;;;;;;;;;;5058659;28;20377;-85
2023/07/14 08:33:02;;;;;;;3.30;2.47;;;;;;;;;;5058580;28;20881;-85
2023/07/14 08:35:28;;;;;;;3.25;2.00;;;;;;;;;;5058518;28;20401;-86
2023/07/14 08:37:54;;;;;;;2.40;2.17;;;;;;;;;;5061198;28;20369;-85
2023/07/14 08:40:26;;;;;;;4.00;2.10;;;;;;;;;;5058480;28;20428;-85
2023/07/14 08:43:05;;;;;;;4.47;2.50;;;;;;;;;;5058538;28;20808;-86
2023/07/14 08:45:39;;;;;;;3.45;2.38;;;;;;;;;;5058443;28;20411;-85
2023/07/14 08:48:20;;;;;;;2.78;1.70;;;;;;;;;;5058418;28;20381;-86
2023/07/14 08:50:50;;;;;;;4.63;1.60;;;;;;;;;;5058441;28;20391;-84
2023/07/14 08:53:20;;;;;;;3.35;1.25;;;;;;;;;;5049151;28;20400;-88
2023/07/14 08:55:46;;;;;;;2.55;1.52;;;;;;;;;;5045553;28;20847;-90
2023/07/14 08:58:15;;;;;;;3.40;1.40;;;;;;;;;;5055494;28;20431;-88
2023/07/14 09:00:44;;;;;;;2.67;1.30;;;;;;;;;;5057532;28;20389;-88
2023/07/14 09:03:16;;;;;;;2.00;1.50;;;;;;;;;;5057018;28;20381;-88
2023/07/14 09:05:54;;;;;;;2.08;1.60;;;;;;;;;;5057710;28;20469;-88
2023/07/14 09:08:24;;;;;;;4.57;1.50;;;;;;;;;;5058737;28;20440;-89
2023/07/14 09:10:59;;;;;;;4.68;1.55;;;;;;;;;;5058409;28;20377;-85
2023/07/14 09:13:44;;;;;;;3.75;1.75;;;;;;;;;;5058137;28;20438;-85
2023/07/14 09:16:11;;;;;;;3.88;1.65;;;;;;;;;;5058021;28;20377;-86
2023/07/14 09:18:37;;;;;;;2.10;1.50;;;;;;;;;;5058249;28;20473;-86
2023/07/14 09:21:03;;;;;;;4.73;1.50;;;;;;;;;;5058610;28;20913;-86
2023/07/14 09:23:29;;;;;;;3.15;1.30;;;;;;;;;;5058106;28;20412;-85
2023/07/14 09:26:13;;;;;;;3.60;1.50;;;;;;;;;;5057847;28;20871;-84
2023/07/14 09:28:41;;;;;;;3.83;1.50;;;;;;;;;;5057972;28;20373;-85
2023/07/14 09:31:19;;;;;;;1.98;1.45;;;;;;;;;;5058120;28;20931;-84
2023/07/14 09:33:47;;;;;;;1.95;1.50;;;;;;;;;;5056634;28;20402;-85
2023/07/14 09:36:13;;;;;;;1.60;1.50;;;;;;;;;;5054845;28;20416;-85
2023/07/14 09:38:39;;;;;;;1.60;1.40;;;;;;;;;;5054793;28;20413;-85
2023/07/14 09:41:06;;;;;;;2.23;1.50;;;;;;;;;;5055016;28;20385;-85
2023/07/14 09:43:32;;;;;;;2.40;1.38;;;;;;;;;;5054768;28;20396;-85
2023/07/14 09:46:00;;;;;;;3.22;1.48;;;;;;;;;;5054662;28;20895;-81
2023/07/14 09:48:31;;;;;;;3.80;1.33;;;;;;;;;;5054374;28;20381;-84
2023/07/14 09:51:01;;;;;;;3.70;1.60;;;;;;;;;;5054635;28;20385;-86
2023/07/14 09:53:28;;;;;;;5.13;1.38;;;;;;;;;;5054532;28;20378;-86
2023/07/14 09:55:54;;;;;;;3.92;1.60;;;;;;;;;;5054562;28;20870;-83
2023/07/14 09:58:26;;;;;;;3.58;1.33;;;;;;;;;;5054519;28;20369;-86
2023/07/14 10:00:54;;;;;;;2.35;1.25;;;;;;;;;;5053773;28;20435;-87
2023/07/14 10:03:20;;;;;;;3.42;1.20;;;;;;;;;;5045572;28;20802;-84
2023/07/14 10:05:52;;;;;;;4.88;1.60;;;;;;;;;;5054009;28;20855;-87
2023/07/14 10:08:34;;;;;;;2.22;1.27;;;;;;;;;;5052094;28;20413;-84
2023/07/14 10:11:15;;;;;;;2.80;1.60;;;;;;;;;;5054211;28;20389;-86
2023/07/14 10:13:45;;;;;;;2.28;1.30;;;;;;;;;;5045298;28;20492;-84
2023/07/14 10:16:16;;;;;;;6.53;1.40;;;;;;;;;;5051538;28;20431;-84
2023/07/14 10:18:50;;;;;;;4.72;1.48;;;;;;;;;;5041721;28;20468;-83
2023/07/14 10:21:22;;;;;;;4.68;1.50;;;;;;;;;;5054139;28;20390;-84
2023/07/14 10:23:56;;;;;;;1.92;1.20;;;;;;;;;;5054222;28;20460;-85
2023/07/14 10:26:24;;;;;;;3.88;1.45;;;;;;;;;;5055355;28;20800;-84
2023/07/14 10:28:51;;;;;;;3.65;1.30;;;;;;;;;;5053975;28;20443;-87
2023/07/14 10:31:23;;;;;;;2.13;1.40;;;;;;;;;;5053941;28;20385;-85
2023/07/14 10:33:52;;;;;;;3.40;1.10;;;;;;;;;;5060807;28;20497;-80
2023/07/14 10:36:23;;;;;;;2.22;1.30;;;;;;;;;;5061752;28;20413;-81
2023/07/14 10:39:00;;;;;;;1.80;1.30;;;;;;;;;;5053726;28;20378;-80
2023/07/14 10:41:27;;;;;;;2.15;1.25;;;;;;;;;;5053677;28;20373;-80
2023/07/14 10:43:58;;;;;;;2.35;1.20;;;;;;;;;;5053706;28;20384;-83
2023/07/14 10:46:35;;;;;;;2.25;1.20;;;;;;;;;;5053160;28;20381;-86
2023/07/14 10:49:07;;;;;;;1.45;1.00;;;;;;;;;;5054414;28;20378;-86
2023/07/14 10:51:43;;;;;;;3.30;1.08;;;;;;;;;;5054696;28;20374;-89
2023/07/14 10:54:12;;;;;;;2.35;1.30;;;;;;;;;;5053839;28;20458;-86
2023/07/14 10:56:41;;;;;;;1.42;1.13;;;;;;;;;;5047392;28;20381;-85
2023/07/14 10:59:22;;;;;;;1.80;1.30;;;;;;;;;;5052942;28;20435;-85
2023/07/14 11:01:58;;;;;;;1.67;1.30;;;;;;;;;;5054597;28;20464;-85
2023/07/14 11:04:34;;;;;;;1.80;1.05;;;;;;;;;;5053097;28;20389;-84
2023/07/14 11:07:10;;;;;;;2.20;1.30;;;;;;;;;;5051690;28;20498;-84
2023/07/14 11:09:36;;;;;;;2.45;1.08;;;;;;;;;;5052406;28;20471;-83
2023/07/14 11:12:07;;;;;;;1.40;1.10;;;;;;;;;;5053023;28;20836;-83
2023/07/14 11:14:41;;;;;;;1.40;1.20;;;;;;;;;;5052822;28;20400;-84
2023/07/14 11:17:13;;;;;;;1.58;1.20;;;;;;;;;;5052958;28;20378;-85
2023/07/14 11:19:39;;;;;;;1.90;1.20;;;;;;;;;;5052184;28;20484;-84
2023/07/14 11:22:12;;;;;;;1.95;1.20;;;;;;;;;;5052904;28;20412;-84
2023/07/14 11:24:41;;;;;;;1.10;1.00;;;;;;;;;;5052719;28;20403;-84
2023/07/14 11:27:07;;;;;;;1.40;1.27;;;;;;;;;;5051747;28;20405;-84
2023/07/14 11:29:45;;;;;;;1.88;1.20;;;;;;;;;;5052830;28;20392;-84
2023/07/14 11:32:17;;;;;;;2.83;1.20;;;;;;;;;;5052155;28;20393;-84
2023/07/14 11:34:54;;;;;;;3.47;1.50;;;;;;;;;;5051977;28;20408;-84
2023/07/14 11:37:49;;;;;;;3.00;1.20;;;;;;;;;;5052429;28;20392;-85
2023/07/14 11:40:20;;;;;;;1.98;1.00;;;;;;;;;;5035314;28;20747;-84
2023/07/14 11:42:48;;;;;;;1.40;1.10;;;;;;;;;;5052828;28;20374;-84
2023/07/14 11:45:19;;;;;;;1.25;1.15;;;;;;;;;;5052447;28;20483;-83
2023/07/14 11:47:45;;;;;;;3.17;1.30;;;;;;;;;;5041349;28;20457;-83
2023/07/14 11:50:17;;;;;;;1.90;1.10;;;;;;;;;;5052383;28;20926;-83
2023/07/14 11:53:00;;;;;;;3.10;1.10;;;;;;;;;;5052334;28;20779;-83
2023/07/14 11:55:30;;;;;;;1.50;1.00;;;;;;;;;;5050906;28;20405;-83
2023/07/14 11:58:12;;;;;;;2.83;1.25;;;;;;;;;;5040530;28;20378;-83
2023/07/14 12:00:41;;;;;;;1.33;1.10;;;;;;;;;;5052216;28;20375;-83
2023/07/14 12:03:22;;;;;;;3.42;1.33;;;;;;;;;;5046539;28;20412;-83
2023/07/14 12:06:09;;;;;;;1.10;0.90;;;;;;;;;;5053056;28;20377;-83
2023/07/14 12:08:42;;;;;;;2.22;1.30;;;;;;;;;;5052056;28;20401;-83
2023/07/14 12:11:25;;;;;;;1.65;1.23;;;;;;;;;;5050757;28;20389;-83
2023/07/14 12:13:51;;;;;;;1.65;1.05;;;;;;;;;;5052088;28;20401;-84
2023/07/14 12:16:24;;;;;;;2.30;1.00;;;;;;;;;;5046766;28;20748;-83
2023/07/14 12:18:58;;;;;;;1.90;1.13;;;;;;;;;;5052309;28;20842;-84
2023/07/14 12:21:54;;;;;;;1.60;1.00;;;;;;;;;;5051995;28;20382;-84
2023/07/14 12:24:22;;;;;;;2.00;1.13;;;;;;;;;;4997688;28;20391;-84
2023/07/14 12:26:51;;;;;;;1.83;1.07;;;;;;;;;;5049122;28;20805;-83
2023/07/14 12:29:18;;;;;;;1.15;0.90;;;;;;;;;;5054037;28;20389;-83
2023/07/14 12:31:55;;;;;;;2.05;1.08;;;;;;;;;;5051961;28;20864;-85
2023/07/14 12:34:23;;;;;;;1.10;0.90;;;;;;;;;;5046127;28;20464;-84
2023/07/14 12:36:49;;;;;;;3.23;1.10;;;;;;;;;;5048662;28;20378;-85
2023/07/14 12:39:16;;;;;;;1.70;1.10;;;;;;;;;;5052190;28;21033;-84
2023/07/14 12:41:43;;;;;;;1.67;1.30;;;;;;;;;;5050622;28;20591;-84
2023/07/14 12:44:19;;;;;;;2.13;1.15;;;;;;;;;;5052032;28;20377;-84
2023/07/14 12:46:45;;;;;;;5.65;1.20;;;;;;;;;;5051657;28;20381;-84
2023/07/14 12:49:24;;;;;;;2.00;1.10;;;;;;;;;;5052028;28;20877;-84
2023/07/14 12:51:50;;;;;;;2.65;1.00;;;;;;;;;;5051803;28;20449;-84
2023/07/14 12:54:27;;;;;;;1.90;0.80;;;;;;;;;;5050012;28;20397;-84
2023/07/14 12:56:59;;;;;;;2.22;1.38;;;;;;;;;;5058869;28;20385;-84
2023/07/14 12:59:25;;;;;;;1.83;1.52;;;;;;;;;;5051660;28;20374;-84
2023/07/14 13:01:52;;;;;;;4.18;3.20;;;;;;;;;;5051485;28;20465;-84
2023/07/14 13:04:20;;;;;;;4.65;3.15;;;;;;;;;;5051500;28;20381;-84
2023/07/14 13:06:47;;;;;;;4.78;2.85;;;;;;;;;;5048213;28;20416;-84
2023/07/14 13:09:24;;;;;;;2.80;2.07;;;;;;;;;;5056251;28;20395;-84
2023/07/14 13:11:51;;;;;;;2.92;1.80;;;;;;;;;;5075475;28;20383;-85
2023/07/14 13:14:21;;;;;;;2.20;1.70;;;;;;;;;;5075390;28;20404;-84
2023/07/14 13:16:49;;;;;;;2.05;1.73;;;;;;;;;;5051399;28;20786;-84
2023/07/14 13:19:32;;;;;;;1.65;1.23;;;;;;;;;;5067288;28;20418;-84
2023/07/14 13:22:00;;;;;;;2.03;1.65;;;;;;;;;;5075284;28;20446;-84
2023/07/14 13:24:26;;;;;;;2.45;1.58;;;;;;;;;;5075145;28;20375;-85
2023/07/14 13:26:54;;;;;;;1.90;1.50;;;;;;;;;;5074236;28;20383;-83
2023/07/14 13:29:23;;;;;;;2.35;1.83;;;;;;;;;;5073920;28;20972;-85
2023/07/14 13:31:51;;;;;;;2.88;1.40;;;;;;;;;;5073573;28;20455;-85
2023/07/14 13:34:21;;;;;;;2.67;1.20;;;;;;;;;;5074511;28;20403;-84
2023/07/14 13:36:47;;;;;;;2.63;1.40;;;;;;;;;;5074673;28;20376;-85
2023/07/14 13:39:33;;;;;;;3.42;1.40;;;;;;;;;;5074322;28;20917;-84
2023/07/14 13:42:01;;;;;;;2.22;1.60;;;;;;;;;;5074481;28;20380;-84
2023/07/14 13:44:30;;;;;;;2.58;1.38;;;;;;;;;;5056835;28;20381;-84
2023/07/14 13:46:56;;;;;;;2.55;1.00;;;;;;;;;;5074703;28;20387;-87
2023/07/14 13:49:22;;;;;;;1.15;1.00;;;;;;;;;;5074610;28;20376;-86
2023/07/14 13:51:48;;;;;;;1.95;0.93;;;;;;;;;;5074108;28;20384;-86
2023/07/14 13:54:18;;;;;;;2.35;1.05;;;;;;;;;;5074511;28;20536;-86
2023/07/14 13:56:46;;;;;;;2.33;1.17;;;;;;;;;;5074499;28;20883;-87
2023/07/14 13:59:20;;;;;;;1.20;1.10;;;;;;;;;;5081476;28;20384;-86
2023/07/14 14:01:48;;;;;;;4.05;2.13;;;;;;;;;;5067691;28;20400;-86
2023/07/14 14:04:15;;;;;;;3.38;2.30;;;;;;;;;;5072742;28;20384;-86
2023/07/14 14:06:41;;;;;;;1.80;1.10;;;;;;;;;;5071699;28;20944;-86
2023/07/14 14:09:19;;;;;;;2.20;1.13;;;;;;;;;;5054641;28;20386;-86
2023/07/14 14:11:51;;;;;;;2.55;1.33;;;;;;;;;;5044952;28;20428;-86
2023/07/14 14:14:20;;;;;;;1.20;1.10;;;;;;;;;;5054150;28;20401;-86
2023/07/14 14:16:47;;;;;;;1.35;1.05;;;;;;;;;;5054361;28;20385;-86
2023/07/14 14:19:17;;;;;;;2.53;1.10;;;;;;;;;;5054221;28;20377;-86
2023/07/14 14:21:43;;;;;;;1.60;1.10;;;;;;;;;;5053680;28;20891;-86
2023/07/14 14:24:10;;;;;;;1.60;0.90;;;;;;;;;;5052833;28;22386;-86
2023/07/14 14:26:36;;;;;;;2.20;1.20;;;;;;;;;;5051692;28;20474;-86
2023/07/14 14:29:03;;;;;;;1.45;1.20;;;;;;;;;;5062509;28;20433;-85
2023/07/14 14:31:29;;;;;;;1.80;1.20;;;;;;;;;;5059416;28;20377;-87
2023/07/14 14:33:55;;;;;;;3.10;1.20;;;;;;;;;;5054216;28;20409;-87
2023/07/14 14:36:21;;;;;;;2.10;1.23;;;;;;;;;;5040174;28;20383;-87
2023/07/14 14:38:47;;;;;;;1.20;1.10;;;;;;;;;;5053151;28;20413;-87
2023/07/14 14:41:34;;;;;;;1.35;1.10;;;;;;;;;;5054020;28;20377;-87
2023/07/14 14:44:02;;;;;;;1.63;1.10;;;;;;;;;;5054199;28;20409;-87
2023/07/14 14:46:28;;;;;;;1.33;1.23;;;;;;;;;;5054094;28;20457;-88
2023/07/14 14:48:54;;;;;;;2.50;1.00;;;;;;;;;;5054048;28;20512;-86
2023/07/14 14:51:20;;;;;;;1.40;1.23;;;;;;;;;;5054295;28;20468;-88
2023/07/14 14:53:46;;;;;;;2.08;1.10;;;;;;;;;;5045169;28;20407;-88